AEE7MK LGMK-LGAV
Flight info
| Callsign | AEE7MK |
|---|---|
| Flight time | 0h 26m |
| Altitude | 14000 |
| Route | VARIX |
| Aircraft | A320/M-SDE3FGHIRWY/LB1 |
Departure
| Time | 2026-04-25 12:54 |
|---|---|
| Airport | Mykonos Island National Airport (LGMK) |
Arrival
| Time | 2026-04-25 13:20 |
|---|---|
| Airport | Athens Eleftherios Venizelos International Airport (LGAV) |
| Time | Latitude | Longitude | Altitude | Speed | Heading |
|---|---|---|---|---|---|
| 2026-04-25 12:31 | 37.43561 | 25.34637 | 408 ft | 0 kts | 249° |
| 2026-04-25 12:46 | 37.43565 | 25.34649 | 408 ft | 3 kts | 242° |
| 2026-04-25 12:46 | 37.43576 | 25.34668 | 408 ft | 3 kts | 209° |
| 2026-04-25 12:47 | 37.43592 | 25.34675 | 407 ft | 2 kts | 167° |
| 2026-04-25 12:47 | 37.43599 | 25.34673 | 406 ft | 0 kts | 159° |
| 2026-04-25 12:49 | 37.43591 | 25.34676 | 407 ft | 3 kts | 159° |
| 2026-04-25 12:49 | 37.43563 | 25.34690 | 407 ft | 6 kts | 159° |
| 2026-04-25 12:49 | 37.43513 | 25.34715 | 407 ft | 10 kts | 159° |
| 2026-04-25 12:50 | 37.43465 | 25.34738 | 406 ft | 12 kts | 159° |
| 2026-04-25 12:50 | 37.43407 | 25.34815 | 404 ft | 14 kts | 115° |
| 2026-04-25 12:50 | 37.43305 | 25.34916 | 404 ft | 16 kts | 160° |
| 2026-04-25 12:50 | 37.43231 | 25.34948 | 404 ft | 18 kts | 161° |
| 2026-04-25 12:51 | 37.43110 | 25.35000 | 405 ft | 19 kts | 161° |
| 2026-04-25 12:51 | 37.42986 | 25.35055 | 407 ft | 20 kts | 161° |
| 2026-04-25 12:51 | 37.42851 | 25.35113 | 408 ft | 21 kts | 161° |
| 2026-04-25 12:51 | 37.42747 | 25.35122 | 411 ft | 13 kts | 202° |
| 2026-04-25 12:52 | 37.42705 | 25.35143 | 410 ft | 9 kts | 51° |
| 2026-04-25 12:52 | 37.42769 | 25.35152 | 406 ft | 11 kts | 341° |
| 2026-04-25 12:52 | 37.42791 | 25.35142 | 410 ft | 0 kts | 340° |
| 2026-04-25 12:53 | 37.42869 | 25.35109 | 408 ft | 30 kts | 341° |
| 2026-04-25 12:53 | 37.43277 | 25.34932 | 405 ft | 94 kts | 341° |
| 2026-04-25 12:54 | 37.44052 | 25.34600 | 458 ft | 135 kts | 343° |
| 2026-04-25 12:54 | 37.44893 | 25.34279 | 1172 ft | 117 kts | 344° |
| 2026-04-25 12:54 | 37.45745 | 25.33952 | 1379 ft | 141 kts | 343° |
| 2026-04-25 12:54 | 37.46613 | 25.33359 | 1906 ft | 144 kts | 322° |
| 2026-04-25 12:55 | 37.47189 | 25.32280 | 2274 ft | 164 kts | 289° |
| 2026-04-25 12:55 | 37.47323 | 25.31272 | 2400 ft | 181 kts | 278° |
| 2026-04-25 12:55 | 37.47537 | 25.29015 | 2855 ft | 211 kts | 279° |
| 2026-04-25 12:55 | 37.47741 | 25.27082 | 3274 ft | 235 kts | 278° |
| 2026-04-25 12:56 | 37.47971 | 25.24946 | 3729 ft | 259 kts | 278° |
| 2026-04-25 12:56 | 37.48193 | 25.22606 | 4347 ft | 276 kts | 270° |
| 2026-04-25 12:56 | 37.47890 | 25.20212 | 5235 ft | 280 kts | 247° |
| 2026-04-25 12:56 | 37.46901 | 25.18115 | 6167 ft | 280 kts | 226° |
| 2026-04-25 12:57 | 37.45598 | 25.16294 | 7139 ft | 280 kts | 224° |
| 2026-04-25 12:57 | 37.44290 | 25.14474 | 8091 ft | 281 kts | 224° |
| 2026-04-25 12:57 | 37.42969 | 25.12635 | 8997 ft | 285 kts | 225° |
| 2026-04-25 12:57 | 37.41631 | 25.10771 | 9867 ft | 290 kts | 225° |
| 2026-04-25 12:58 | 37.40255 | 25.08854 | 10417 ft | 305 kts | 225° |
| 2026-04-25 12:58 | 37.38889 | 25.06682 | 10731 ft | 328 kts | 236° |
| 2026-04-25 12:58 | 37.37954 | 25.04010 | 11341 ft | 340 kts | 252° |
| 2026-04-25 12:58 | 37.37590 | 25.01050 | 12047 ft | 348 kts | 268° |
| 2026-04-25 12:59 | 37.37861 | 24.98007 | 12732 ft | 354 kts | 285° |
| 2026-04-25 12:59 | 37.38620 | 24.95040 | 13450 ft | 359 kts | 289° |
| 2026-04-25 12:59 | 37.39418 | 24.92050 | 13897 ft | 363 kts | 289° |
| 2026-04-25 12:59 | 37.40221 | 24.89036 | 14013 ft | 362 kts | 289° |
| 2026-04-25 13:00 | 37.41006 | 24.86077 | 14033 ft | 353 kts | 289° |
| 2026-04-25 13:00 | 37.41518 | 24.84141 | 14035 ft | 352 kts | 289° |
| 2026-04-25 13:00 | 37.42549 | 24.80238 | 14034 ft | 351 kts | 289° |
| 2026-04-25 13:00 | 37.43318 | 24.77318 | 14032 ft | 351 kts | 289° |
| 2026-04-25 13:01 | 37.44070 | 24.74410 | 14049 ft | 359 kts | 288° |
| 2026-04-25 13:01 | 37.44845 | 24.71407 | 14004 ft | 358 kts | 288° |
| 2026-04-25 13:01 | 37.45597 | 24.68484 | 13869 ft | 346 kts | 288° |
| 2026-04-25 13:01 | 37.46332 | 24.65634 | 13585 ft | 339 kts | 288° |
| 2026-04-25 13:02 | 37.47053 | 24.62838 | 13314 ft | 333 kts | 288° |
| 2026-04-25 13:02 | 37.47765 | 24.60085 | 13011 ft | 328 kts | 288° |
| 2026-04-25 13:02 | 37.48465 | 24.57376 | 12724 ft | 323 kts | 288° |
| 2026-04-25 13:02 | 37.49156 | 24.54703 | 12441 ft | 319 kts | 288° |
| 2026-04-25 13:03 | 37.49840 | 24.52054 | 12166 ft | 317 kts | 288° |
| 2026-04-25 13:03 | 37.50520 | 24.49420 | 11897 ft | 316 kts | 288° |
| 2026-04-25 13:03 | 37.51198 | 24.46799 | 11620 ft | 314 kts | 288° |
| 2026-04-25 13:03 | 37.51871 | 24.44190 | 11347 ft | 313 kts | 288° |
| 2026-04-25 13:04 | 37.52543 | 24.41589 | 11076 ft | 311 kts | 288° |
| 2026-04-25 13:04 | 37.53227 | 24.39017 | 10806 ft | 309 kts | 289° |
| 2026-04-25 13:04 | 37.53929 | 24.36459 | 10518 ft | 309 kts | 290° |
| 2026-04-25 13:04 | 37.54628 | 24.33902 | 10226 ft | 308 kts | 289° |
| 2026-04-25 13:05 | 37.55289 | 24.31340 | 9973 ft | 307 kts | 284° |
| 2026-04-25 13:05 | 37.55611 | 24.28695 | 9824 ft | 306 kts | 272° |
| 2026-04-25 13:05 | 37.55549 | 24.26018 | 9692 ft | 306 kts | 266° |
| 2026-04-25 13:05 | 37.55423 | 24.23343 | 9565 ft | 306 kts | 266° |
| 2026-04-25 13:06 | 37.55299 | 24.20675 | 9434 ft | 305 kts | 266° |
| 2026-04-25 13:06 | 37.55179 | 24.18017 | 9303 ft | 304 kts | 266° |
| 2026-04-25 13:06 | 37.55063 | 24.15358 | 9164 ft | 303 kts | 266° |
| 2026-04-25 13:06 | 37.54945 | 24.12707 | 9039 ft | 302 kts | 266° |
| 2026-04-25 13:07 | 37.54823 | 24.10068 | 8905 ft | 302 kts | 266° |
| 2026-04-25 13:07 | 37.54700 | 24.07438 | 8720 ft | 301 kts | 266° |
| 2026-04-25 13:07 | 37.54578 | 24.04820 | 8419 ft | 297 kts | 267° |
| 2026-04-25 13:07 | 37.54457 | 24.02233 | 8114 ft | 295 kts | 267° |
| 2026-04-25 13:08 | 37.54339 | 23.99664 | 7817 ft | 293 kts | 267° |
| 2026-04-25 13:08 | 37.54221 | 23.97111 | 7517 ft | 291 kts | 267° |
| 2026-04-25 13:08 | 37.54103 | 23.94572 | 7223 ft | 289 kts | 266° |
| 2026-04-25 13:08 | 37.53984 | 23.92048 | 6930 ft | 287 kts | 266° |
| 2026-04-25 13:09 | 37.53865 | 23.89579 | 6642 ft | 285 kts | 266° |
| 2026-04-25 13:09 | 37.53747 | 23.87094 | 6347 ft | 283 kts | 266° |
| 2026-04-25 13:09 | 37.53629 | 23.84625 | 6041 ft | 281 kts | 266° |
| 2026-04-25 13:09 | 37.53510 | 23.82176 | 5743 ft | 279 kts | 267° |
| 2026-04-25 13:10 | 37.53392 | 23.79748 | 5432 ft | 273 kts | 269° |
| 2026-04-25 13:10 | 37.53637 | 23.77454 | 5104 ft | 258 kts | 293° |
| 2026-04-25 13:10 | 37.54539 | 23.75596 | 4783 ft | 242 kts | 318° |
| 2026-04-25 13:10 | 37.55843 | 23.74398 | 4434 ft | 225 kts | 339° |
| 2026-04-25 13:11 | 37.57311 | 23.73897 | 4110 ft | 216 kts | 358° |
| 2026-04-25 13:11 | 37.58808 | 23.73789 | 3779 ft | 215 kts | 359° |
| 2026-04-25 13:11 | 37.60303 | 23.73675 | 3471 ft | 215 kts | 358° |
| 2026-04-25 13:11 | 37.61797 | 23.73557 | 3210 ft | 213 kts | 358° |
| 2026-04-25 13:12 | 37.63277 | 23.73437 | 3178 ft | 213 kts | 358° |
| 2026-04-25 13:12 | 37.64756 | 23.73317 | 3190 ft | 212 kts | 358° |
| 2026-04-25 13:12 | 37.66193 | 23.73203 | 3185 ft | 202 kts | 359° |
| 2026-04-25 13:12 | 37.67118 | 23.73131 | 3187 ft | 200 kts | 359° |
| 2026-04-25 13:13 | 37.68963 | 23.73083 | 3193 ft | 197 kts | 9° |
| 2026-04-25 13:13 | 37.70265 | 23.73544 | 3200 ft | 193 kts | 26° |
| 2026-04-25 13:13 | 37.71391 | 23.74442 | 3208 ft | 193 kts | 36° |
| 2026-04-25 13:13 | 37.72479 | 23.75486 | 3249 ft | 202 kts | 39° |
| 2026-04-25 13:14 | 37.73641 | 23.76597 | 3203 ft | 215 kts | 40° |
| 2026-04-25 13:14 | 37.74825 | 23.77716 | 3177 ft | 206 kts | 39° |
| 2026-04-25 13:14 | 37.75930 | 23.78757 | 3183 ft | 190 kts | 39° |
| 2026-04-25 13:14 | 37.76936 | 23.79707 | 3179 ft | 175 kts | 38° |
| 2026-04-25 13:15 | 37.77907 | 23.80627 | 3191 ft | 173 kts | 38° |
| 2026-04-25 13:15 | 37.78871 | 23.81539 | 3201 ft | 172 kts | 38° |
| 2026-04-25 13:15 | 37.79797 | 23.82415 | 3204 ft | 160 kts | 38° |
| 2026-04-25 13:15 | 37.80660 | 23.83232 | 3155 ft | 153 kts | 38° |
| 2026-04-25 13:16 | 37.81507 | 23.84033 | 3001 ft | 150 kts | 38° |
| 2026-04-25 13:16 | 37.82331 | 23.84814 | 2842 ft | 148 kts | 37° |
| 2026-04-25 13:16 | 37.83146 | 23.85586 | 2655 ft | 143 kts | 37° |
| 2026-04-25 13:16 | 37.83937 | 23.86335 | 2469 ft | 140 kts | 37° |
| 2026-04-25 13:17 | 37.84699 | 23.87058 | 2276 ft | 136 kts | 37° |
| 2026-04-25 13:17 | 37.85458 | 23.87777 | 2100 ft | 135 kts | 36° |
| 2026-04-25 13:17 | 37.86207 | 23.88487 | 1918 ft | 134 kts | 36° |
| 2026-04-25 13:17 | 37.86947 | 23.89189 | 1743 ft | 133 kts | 37° |
| 2026-04-25 13:18 | 37.87692 | 23.89896 | 1559 ft | 130 kts | 37° |
| 2026-04-25 13:18 | 37.88391 | 23.90559 | 1395 ft | 126 kts | 37° |
| 2026-04-25 13:18 | 37.89109 | 23.91240 | 1200 ft | 127 kts | 38° |
| 2026-04-25 13:18 | 37.89806 | 23.91902 | 1019 ft | 129 kts | 37° |
| 2026-04-25 13:19 | 37.90518 | 23.92578 | 843 ft | 126 kts | 36° |
| 2026-04-25 13:19 | 37.91217 | 23.93242 | 665 ft | 125 kts | 38° |
| 2026-04-25 13:19 | 37.91906 | 23.93894 | 512 ft | 124 kts | 39° |
| 2026-04-25 13:19 | 37.92137 | 23.94113 | 469 ft | 122 kts | 39° |
| 2026-04-25 13:20 | 37.93257 | 23.95187 | 285 ft | 107 kts | 37° |
| 2026-04-25 13:20 | 37.93632 | 23.95543 | 282 ft | 26 kts | 37° |
| 2026-04-25 13:20 | 37.93685 | 23.95593 | 277 ft | 9 kts | 37° |
| 2026-04-25 13:20 | 37.93748 | 23.95582 | 277 ft | 10 kts | 320° |
| 2026-04-25 13:21 | 37.93772 | 23.95546 | 278 ft | 0 kts | 308° |
| 2026-04-25 13:23 | 37.93773 | 23.95545 | 278 ft | 0 kts | 308° |
| 2026-04-25 13:23 | 37.93777 | 23.95538 | 278 ft | 1 kts | 308° |
| 2026-04-25 13:23 | 37.93785 | 23.95525 | 280 ft | 2 kts | 308° |
| 2026-04-25 13:23 | 37.93797 | 23.95506 | 280 ft | 3 kts | 307° |
| 2026-04-25 13:24 | 37.93812 | 23.95481 | 279 ft | 4 kts | 307° |
| 2026-04-25 13:24 | 37.93832 | 23.95447 | 279 ft | 6 kts | 306° |
| 2026-04-25 13:24 | 37.93858 | 23.95403 | 279 ft | 7 kts | 308° |
| 2026-04-25 13:24 | 37.93892 | 23.95347 | 280 ft | 9 kts | 307° |
| 2026-04-25 13:25 | 37.93933 | 23.95278 | 280 ft | 11 kts | 306° |
| 2026-04-25 13:25 | 37.93972 | 23.95209 | 281 ft | 0 kts | 306° |
| 2026-04-25 13:25 | 37.93975 | 23.95204 | 281 ft | 1 kts | 306° |
| 2026-04-25 13:25 | 37.93984 | 23.95189 | 283 ft | 3 kts | 306° |
| 2026-04-25 13:26 | 37.94001 | 23.95173 | 281 ft | 3 kts | 335° |
| 2026-04-25 13:26 | 37.94031 | 23.95178 | 281 ft | 6 kts | 24° |
| 2026-04-25 13:26 | 37.94058 | 23.95200 | 283 ft | 3 kts | 36° |
| 2026-04-25 13:26 | 37.94074 | 23.95215 | 282 ft | 0 kts | 36° |